Time;durP1;ratioP1;P1;durP2;ratioP2;P2;SDS_P1;SDS_P2;PMS_P1;PMS_P2;Temp;Humidity;BMP_temperature;BMP_pressure;BME280_temperature;BME280_humidity;BME280_pressure;Samples;Min_cycle;Max_cycle;Signal;HPM_P1;HPM_P2
2022/09/02 00:02:24;;;;;;;7.18;2.88;;;;;;;15.44;66.24;101524.88;5133710;28;20019;-74
2022/09/02 00:08:12;;;;;;;5.55;2.58;;;;;;;15.32;66.48;101528.56;5134041;28;20034;-75
2022/09/02 00:10:40;;;;;;;5.03;2.50;;;;;;;15.28;66.92;101525.50;5132738;28;20489;-75
2022/09/02 00:19:55;;;;;;;7.30;3.03;;;;;;;15.21;67.66;101524.78;5133699;28;20510;-75
2022/09/02 00:25:43;;;;;;;6.18;2.70;;;;;;;15.12;68.14;101518.06;5133611;28;20083;-75
2022/09/02 00:31:32;;;;;;;3.83;2.78;;;;;;;15.01;68.84;101511.53;5133123;27;20084;-75
2022/09/02 00:33:58;;;;;;;5.70;2.63;;;;;;;14.95;69.12;101506.25;5132459;28;20511;-75
2022/09/02 00:36:23;;;;;;;4.68;2.85;;;;;;;14.94;69.10;101512.69;5133205;28;20471;-75
2022/09/02 00:38:50;;;;;;;6.30;2.80;;;;;;;14.90;69.80;101512.31;5132314;28;20051;-75
2022/09/02 00:41:19;;;;;;;3.45;2.78;;;;;;;14.87;70.30;101516.28;5133111;28;20027;-75
2022/09/02 00:43:52;;;;;;;7.43;2.63;;;;;;;14.84;69.99;101510.53;5133077;28;20035;-76
2022/09/02 00:46:23;;;;;;;9.38;2.83;;;;;;;14.83;70.04;101511.59;5132178;28;20035;-76
2022/09/02 00:48:59;;;;;;;3.88;2.45;;;;;;;14.84;69.16;101510.53;5133008;28;20023;-75
2022/09/02 00:55:00;;;;;;;5.15;2.63;;;;;;;14.73;70.46;101501.31;5132910;28;20505;-75
2022/09/02 01:00:51;;;;;;;3.17;2.55;;;;;;;14.66;71.44;101497.91;5132494;27;20057;-76
2022/09/02 01:06:38;;;;;;;4.30;3.15;;;;;;;14.59;71.75;101499.03;5133068;28;20254;-75
2022/09/02 01:09:09;;;;;;;3.53;2.55;;;;;;;14.57;71.54;101499.25;5113941;28;20138;-75
2022/09/02 01:11:38;;;;;;;3.83;2.40;;;;;;;14.54;71.99;101497.00;5114304;28;20027;-75
2022/09/02 01:14:05;;;;;;;4.38;2.58;;;;;;;14.48;71.87;101489.84;5131816;28;20174;-75
2022/09/02 01:16:45;;;;;;;6.80;2.55;;;;;;;14.47;71.99;101489.03;5132618;28;20026;-75
2022/09/02 01:19:24;;;;;;;5.93;2.65;;;;;;;14.48;71.51;101490.66;5132647;28;20023;-75
2022/09/02 01:21:52;;;;;;;4.57;2.75;;;;;;;14.47;72.17;101494.41;5131780;28;20043;-75
2022/09/02 01:24:19;;;;;;;4.95;2.60;;;;;;;14.46;72.10;101497.31;5114211;28;20015;-75
2022/09/02 01:26:44;;;;;;;4.20;2.72;;;;;;;14.41;72.21;101489.03;5113448;28;20042;-75
2022/09/02 01:32:31;;;;;;;3.67;2.50;;;;;;;14.35;72.26;101485.38;5131982;27;20122;-75
2022/09/02 01:34:58;;;;;;;4.97;2.78;;;;;;;14.35;72.27;101490.75;5132288;28;20118;-75
2022/09/02 01:37:23;;;;;;;3.67;2.85;;;;;;;14.28;73.13;101479.25;5132308;28;20130;-75
2022/09/02 01:39:51;;;;;;;7.45;2.55;;;;;;;14.23;72.62;101479.09;5131518;28;20461;-75
2022/09/02 01:45:40;;;;;;;7.03;2.47;;;;;;;14.16;73.50;101475.63;5136090;28;20547;-76
2022/09/02 01:48:07;;;;;;;5.38;2.97;;;;;;;14.15;73.63;101472.13;5117511;28;20355;-76
2022/09/02 01:50:36;;;;;;;6.78;2.95;;;;;;;14.14;73.72;101472.34;5116587;28;20456;-75
2022/09/02 01:53:02;;;;;;;4.22;2.88;;;;;;;14.13;73.63;101481.44;5135800;28;20364;-75
2022/09/02 01:55:28;;;;;;;8.23;2.95;;;;;;;14.12;73.78;101472.56;5135591;28;20035;-75
2022/09/02 01:57:54;;;;;;;5.35;2.78;;;;;;;14.09;73.94;101473.00;5116669;28;20044;-75
2022/09/02 02:03:41;;;;;;;8.38;3.05;;;;;;;14.04;73.79;101466.66;5136008;28;20046;-75
2022/09/02 02:06:12;;;;;;;7.28;3.63;;;;;;;14.05;73.94;101474.50;5135711;28;20023;-75
2022/09/02 02:11:59;;;;;;;5.03;3.25;;;;;;;13.91;74.57;101463.06;5135767;28;20046;-75
2022/09/02 02:14:24;;;;;;;3.70;2.90;;;;;;;13.93;74.72;101474.41;5134518;28;20039;-75
2022/09/02 02:16:50;;;;;;;3.47;3.10;;;;;;;13.86;75.24;101467.44;5116862;28;20288;-75
2022/09/02 02:19:15;;;;;;;5.60;2.97;;;;;;;13.88;75.17;101468.88;5116833;28;20645;-75
2022/09/02 02:21:41;;;;;;;5.75;3.08;;;;;;;13.86;75.08;101465.56;5116345;28;20046;-76
2022/09/02 02:24:08;;;;;;;5.95;3.45;;;;;;;13.80;75.01;101461.06;5116840;28;20098;-76
2022/09/02 02:26:34;;;;;;;5.28;3.03;;;;;;;13.82;75.24;101464.34;5134422;28;20027;-75
2022/09/02 02:29:00;;;;;;;5.45;3.05;;;;;;;13.87;75.28;101469.88;5135028;28;20069;-75
2022/09/02 02:31:26;;;;;;;4.25;3.03;;;;;;;13.79;75.61;101462.13;5134557;28;20091;-75
2022/09/02 02:37:12;;;;;;;4.00;3.00;;;;;;;13.80;75.19;101460.25;5134974;28;20038;-76
2022/09/02 02:42:59;;;;;;;4.00;3.08;;;;;;;13.88;75.46;101460.00;5135217;28;20054;-75
2022/09/02 02:45:25;;;;;;;6.07;3.17;;;;;;;13.86;75.07;101456.66;5134075;28;20043;-76
2022/09/02 02:47:51;;;;;;;5.50;3.17;;;;;;;13.90;75.20;101457.91;5134874;28;20555;-76
2022/09/02 02:53:38;;;;;;;6.35;3.10;;;;;;;13.89;75.09;101453.56;5135169;27;20065;-75
2022/09/02 02:56:04;;;;;;;7.53;3.53;;;;;;;13.89;75.39;101461.63;5133890;28;20428;-75
2022/09/02 02:58:29;;;;;;;4.70;3.17;;;;;;;13.84;75.55;101448.84;5134724;28;20415;-75
2022/09/02 03:00:56;;;;;;;5.57;3.17;;;;;;;13.86;75.69;101454.81;5116033;28;20121;-75
2022/09/02 03:03:21;;;;;;;7.45;3.53;;;;;;;13.84;75.91;101459.59;5115703;28;20041;-75
2022/09/02 03:05:48;;;;;;;3.60;2.97;;;;;;;13.81;76.00;101449.28;5116073;28;20121;-75
2022/09/02 03:08:14;;;;;;;7.30;3.88;;;;;;;13.81;75.84;101443.91;5133783;28;20100;-75
2022/09/02 03:10:41;;;;;;;5.78;2.83;;;;;;;13.80;75.71;101442.25;5115930;28;20463;-75
2022/09/02 03:13:08;;;;;;;7.93;3.25;;;;;;;13.76;76.90;101441.06;5134446;28;20060;-75
2022/09/02 03:15:35;;;;;;;8.35;3.17;;;;;;;13.75;76.86;101444.78;5133506;28;20077;-75
2022/09/02 03:18:00;;;;;;;5.10;3.28;;;;;;;13.76;76.19;101443.75;5134371;28;20034;-75
2022/09/02 03:23:47;;;;;;;9.82;3.25;;;;;;;13.81;76.30;101440.38;5134427;28;20114;-75
2022/09/02 03:26:17;;;;;;;4.75;3.20;;;;;;;13.83;76.16;101454.44;5133468;28;20122;-75
2022/09/02 03:28:43;;;;;;;5.88;3.72;;;;;;;13.81;76.18;101449.28;5134093;28;20041;-75
2022/09/02 03:31:14;;;;;;;8.07;3.42;;;;;;;13.82;75.70;101445.53;5134160;28;20619;-75
2022/09/02 03:33:39;;;;;;;7.95;3.50;;;;;;;13.77;76.33;101442.69;5133323;28;20483;-76
2022/09/02 03:36:05;;;;;;;5.27;3.43;;;;;;;13.81;76.37;101448.44;5115539;28;20095;-75
2022/09/02 03:38:30;;;;;;;11.88;4.05;;;;;;;13.78;76.57;101443.53;5115033;28;20368;-75
2022/09/02 03:40:55;;;;;;;6.05;3.55;;;;;;;13.76;76.53;101438.38;5134139;28;20106;-75
2022/09/02 03:43:21;;;;;;;6.03;3.50;;;;;;;13.75;76.61;101435.91;5115606;28;20390;-75
2022/09/02 03:45:46;;;;;;;3.83;3.30;;;;;;;13.77;77.14;101437.31;5133095;28;20039;-75
2022/09/02 03:48:13;;;;;;;5.93;3.33;;;;;;;13.74;77.14;101440.44;5115459;28;20034;-75
2022/09/02 03:50:42;;;;;;;7.68;3.35;;;;;;;13.68;76.77;101425.22;5114854;28;20042;-75
2022/09/02 03:53:07;;;;;;;5.93;3.75;;;;;;;13.66;76.89;101427.28;5133786;28;20451;-75
2022/09/02 03:55:35;;;;;;;6.68;3.70;;;;;;;13.69;77.22;101431.41;5115265;28;20031;-76
2022/09/02 03:58:00;;;;;;;3.58;3.15;;;;;;;13.61;77.84;101419.06;5133045;28;20043;-75
2022/09/02 04:00:30;;;;;;;6.07;3.75;;;;;;;13.61;77.92;101422.59;5133678;27;20095;-75
2022/09/02 04:02:57;;;;;;;4.63;3.45;;;;;;;13.59;77.57;101416.63;5114619;28;20134;-75
2022/09/02 04:05:23;;;;;;;6.45;3.53;;;;;;;13.59;78.18;101421.16;5114623;28;20019;-75
2022/09/02 04:07:50;;;;;;;5.03;3.20;;;;;;;13.60;77.31;101412.88;5133714;28;20131;-75
2022/09/02 04:13:37;;;;;;;4.85;3.38;;;;;;;13.61;77.74;101416.41;5133812;28;20154;-75
2022/09/02 04:16:16;;;;;;;4.13;3.20;;;;;;;13.54;77.94;101403.00;5114488;28;20511;-75
2022/09/02 04:18:42;;;;;;;5.63;3.88;;;;;;;13.60;77.87;101418.25;5114938;28;20038;-75
2022/09/02 04:21:07;;;;;;;6.30;3.38;;;;;;;13.59;78.09;101413.09;5132612;28;20043;-75
2022/09/02 04:26:54;;;;;;;5.28;3.13;;;;;;;13.49;78.60;101416.25;5133438;28;20042;-75
2022/09/02 04:29:20;;;;;;;4.17;3.70;;;;;;;13.41;78.78;101403.13;5121119;28;20035;-75
2022/09/02 04:31:45;;;;;;;5.07;3.42;;;;;;;13.33;79.49;101412.28;5114804;28;20705;-74
2022/09/02 04:34:11;;;;;;;5.82;3.40;;;;;;;13.34;79.97;101413.09;5132311;28;20081;-74
2022/09/02 04:36:36;;;;;;;7.30;3.67;;;;;;;13.29;79.75;101410.22;5114649;28;20114;-75
2022/09/02 04:39:01;;;;;;;5.93;3.53;;;;;;;13.28;79.36;101404.00;5132908;28;20058;-75
2022/09/02 04:41:29;;;;;;;4.90;3.80;;;;;;;13.30;79.81;101410.03;5132443;28;20077;-75
2022/09/02 04:43:56;;;;;;;7.38;3.65;;;;;;;13.19;80.31;101401.81;5132970;28;20088;-75
2022/09/02 04:46:23;;;;;;;7.60;3.53;;;;;;;13.19;80.20;101405.34;5132250;28;20043;-75
2022/09/02 04:48:48;;;;;;;9.02;3.78;;;;;;;13.24;80.34;101410.03;5133077;28;20035;-75
2022/09/02 04:51:17;;;;;;;4.72;3.70;;;;;;;13.23;80.06;101405.72;5132408;28;20453;-76
2022/09/02 04:53:44;;;;;;;7.60;3.85;;;;;;;13.30;80.08;101412.72;5114516;28;20027;-75
2022/09/02 04:56:14;;;;;;;5.82;3.90;;;;;;;13.36;79.72;101410.19;5132803;28;20372;-76
2022/09/02 04:58:41;;;;;;;8.75;4.05;;;;;;;13.40;80.24;101412.22;5132142;28;20053;-75
2022/09/02 05:01:19;;;;;;;6.60;4.07;;;;;;;13.44;80.22;101413.41;5132730;27;20106;-76
2022/09/02 05:03:46;;;;;;;9.82;4.10;;;;;;;13.47;80.22;101407.59;5113721;28;20039;-75
2022/09/02 05:06:14;;;;;;;4.85;3.67;;;;;;;13.52;79.88;101409.63;5114352;28;20598;-75
2022/09/02 05:08:41;;;;;;;8.75;3.83;;;;;;;13.55;79.87;101403.81;5132779;28;20031;-75
2022/09/02 05:11:13;;;;;;;7.85;3.90;;;;;;;13.60;79.75;101410.19;5113658;28;20035;-75
2022/09/02 05:13:40;;;;;;;7.22;4.50;;;;;;;13.64;80.07;101407.88;5132621;28;20483;-75
2022/09/02 05:16:06;;;;;;;6.82;4.07;;;;;;;13.72;80.30;101409.47;5113697;27;20100;-75
2022/09/02 05:18:32;;;;;;;6.15;4.07;;;;;;;13.81;80.40;101414.31;5116883;28;20027;-75
2022/09/02 05:20:58;;;;;;;7.25;4.20;;;;;;;13.91;79.57;101403.91;5117850;28;20455;-76
2022/09/02 05:23:23;;;;;;;6.32;4.03;;;;;;;13.94;79.26;101416.91;5117048;28;20031;-75
2022/09/02 05:25:49;;;;;;;5.32;4.38;;;;;;;13.99;79.62;101410.84;5136213;28;20106;-75
2022/09/02 05:28:15;;;;;;;10.88;4.50;;;;;;;13.99;80.09;101413.53;5135228;28;20077;-75
2022/09/02 05:34:02;;;;;;;6.30;3.60;;;;;;;14.10;78.63;101418.19;5136470;28;20050;-75
2022/09/02 05:36:28;;;;;;;7.22;4.43;;;;;;;14.10;79.09;101412.78;5117318;28;20092;-75
2022/09/02 05:38:53;;;;;;;7.82;4.20;;;;;;;14.09;79.55;101407.66;5135884;28;20467;-75
2022/09/02 05:41:23;;;;;;;6.47;3.88;;;;;;;14.16;79.33;101405.69;5135096;28;20075;-75
2022/09/02 05:43:50;;;;;;;7.97;3.88;;;;;;;14.20;79.53;101402.38;5117460;28;20033;-74
2022/09/02 05:46:19;;;;;;;7.50;4.05;;;;;;;14.26;79.51;101409.53;5134999;28;20144;-75
2022/09/02 05:52:10;;;;;;;5.15;4.30;;;;;;;14.41;79.68;101414.50;5135599;28;20406;-75
2022/09/02 11:55:15;;;;;;;6.57;3.03;;;;;;;25.19;37.54;101231.41;4922183;29;20091;-72
2022/09/02 12:01:17;;;;;;;7.15;3.70;;;;;;;25.01;37.18;101224.88;4917263;29;20182;-71
2022/09/02 15:31:23;;;;;;;7.32;4.03;;;;;;;25.26;32.59;101040.16;5060938;23;20070;-71
2022/09/02 15:33:50;;;;;;;7.55;3.42;;;;;;;25.28;31.74;101043.41;4972788;28;20031;-73
2022/09/02 15:36:15;;;;;;;6.70;3.72;;;;;;;25.32;32.52;101033.44;4972514;28;20027;-70
2022/09/02 15:38:42;;;;;;;6.55;3.60;;;;;;;25.30;32.94;101038.44;4976837;28;20108;-71
2022/09/02 15:44:29;;;;;;;8.93;3.33;;;;;;;25.29;32.15;101030.53;4973814;28;20155;-71
2022/09/02 15:46:55;;;;;;;12.30;3.40;;;;;;;25.39;32.20;101041.22;4972412;28;20042;-71
2022/09/02 15:49:22;;;;;;;9.18;3.60;;;;;;;25.28;33.16;101035.19;4976606;28;20105;-72
2022/09/02 15:51:48;;;;;;;15.10;3.95;;;;;;;25.22;33.34;101027.41;4972447;28;20035;-72
2022/09/02 15:54:17;;;;;;;7.97;3.45;;;;;;;25.22;33.08;101030.94;4973934;28;20034;-70
2022/09/02 15:56:44;;;;;;;6.40;3.60;;;;;;;25.27;32.58;101027.28;4975680;28;20066;-71
2022/09/02 15:59:15;;;;;;;7.88;3.20;;;;;;;25.17;32.55;101022.84;4973588;28;20125;-73
2022/09/02 16:01:43;;;;;;;6.90;3.10;;;;;;;25.17;32.43;101022.84;4975578;28;20070;-72
2022/09/02 16:07:30;;;;;;;9.15;3.50;;;;;;;25.06;32.66;101018.69;4974163;28;20042;-71
2022/09/02 16:09:55;;;;;;;7.40;3.10;;;;;;;25.11;32.36;101012.31;4973758;28;20026;-73
2022/09/02 16:12:21;;;;;;;8.75;3.65;;;;;;;25.17;32.74;101016.56;4976660;28;20404;-70
2022/09/02 16:14:49;;;;;;;7.17;3.53;;;;;;;25.00;32.39;101014.47;4973943;28;20105;-71
2022/09/02 16:20:36;;;;;;;7.05;3.50;;;;;;;24.95;33.10;101001.66;4974046;28;20054;-71
2022/09/02 16:23:01;;;;;;;5.17;3.20;;;;;;;24.91;32.75;100995.19;4973565;28;20019;-71
2022/09/02 16:25:27;;;;;;;6.13;3.33;;;;;;;24.87;33.02;100998.84;4976133;28;20850;-72
2022/09/02 16:27:53;;;;;;;7.57;3.23;;;;;;;24.89;32.65;101000.16;4971972;28;20294;-72
2022/09/02 16:30:19;;;;;;;5.47;3.33;;;;;;;24.83;33.46;100993.16;4975987;28;20047;-72
2022/09/02 16:32:46;;;;;;;7.85;3.15;;;;;;;24.88;33.21;100995.81;4971880;28;20019;-70
2022/09/02 16:35:11;;;;;;;4.97;3.22;;;;;;;24.80;33.61;100993.78;4973529;28;20434;-71
2022/09/02 16:40:59;;;;;;;6.82;2.95;;;;;;;24.80;33.87;100991.03;4973342;28;20089;-72
2022/09/02 16:43:24;;;;;;;7.28;2.95;;;;;;;24.74;34.38;100992.25;4972974;28;20034;-70
2022/09/02 16:45:51;;;;;;;3.27;2.60;;;;;;;24.73;33.30;100989.84;4973131;28;20085;-71
2022/09/02 16:48:18;;;;;;;5.40;2.72;;;;;;;24.74;33.15;100984.06;4975654;28;20369;-71
2022/09/02 16:50:44;;;;;;;6.00;2.75;;;;;;;24.60;33.31;100989.56;4971580;28;20422;-71
2022/09/02 16:53:09;;;;;;;4.40;2.58;;;;;;;24.64;33.80;100984.28;4975720;28;20534;-71
2022/09/02 16:55:42;;;;;;;7.43;2.72;;;;;;;24.52;34.07;100981.22;4972807;28;20095;-70
2022/09/02 17:01:30;;;;;;;6.22;3.08;;;;;;;24.45;34.10;100978.91;4972781;28;20038;-71
2022/09/02 17:07:17;;;;;;;4.97;2.45;;;;;;;24.34;34.34;100969.28;4973296;28;20166;-72
2022/09/02 17:09:42;;;;;;;4.20;2.50;;;;;;;24.21;34.80;100975.50;4972871;28;20040;-72
2022/09/02 17:15:29;;;;;;;9.27;2.67;;;;;;;24.16;35.26;100973.69;4976396;28;20097;-72
2022/09/02 17:21:25;;;;;;;7.65;3.03;;;;;;;23.97;35.52;100971.00;4976360;28;20405;-72
2022/09/02 17:23:51;;;;;;;3.75;2.40;;;;;;;23.92;36.06;100973.84;4974238;28;20406;-72
2022/09/02 17:26:17;;;;;;;6.68;2.92;;;;;;;23.82;35.51;100967.75;4974711;28;20030;-71
2022/09/02 17:28:46;;;;;;;8.98;2.63;;;;;;;23.73;36.16;100975.84;4978875;28;20078;-72
2022/09/02 17:34:33;;;;;;;9.27;2.75;;;;;;;23.64;36.07;100964.75;4976169;28;20054;-72
2022/09/02 17:36:58;;;;;;;5.65;2.95;;;;;;;23.54;36.46;100972.28;4975682;28;20027;-71
2022/09/02 17:39:25;;;;;;;7.40;2.90;;;;;;;23.44;36.81;100965.06;4977299;28;20112;-73
2022/09/02 17:45:12;;;;;;;7.30;2.85;;;;;;;23.29;37.23;100973.47;4976694;28;20573;-71
2022/09/02 17:51:00;;;;;;;8.35;2.90;;;;;;;23.01;38.06;100976.06;4975557;28;20045;-71
2022/09/02 17:53:25;;;;;;;10.57;3.05;;;;;;;22.88;37.98;100970.53;4978527;28;20487;-71
2022/09/02 17:55:59;;;;;;;12.45;3.60;;;;;;;22.74;38.43;100967.66;4975369;28;20027;-71
2022/09/02 17:58:30;;;;;;;10.15;2.92;;;;;;;22.60;38.83;100970.28;4978398;28;20097;-71
2022/09/02 18:00:59;;;;;;;9.48;2.85;;;;;;;22.53;39.09;100978.81;4975584;28;20031;-71
2022/09/02 18:03:31;;;;;;;7.40;3.03;;;;;;;22.42;38.92;100980.03;4975032;28;20063;-71
2022/09/02 18:06:19;;;;;;;6.47;3.40;;;;;;;22.32;39.66;100976.63;4974306;28;20101;-72
2022/09/02 18:08:50;;;;;;;5.60;2.97;;;;;;;22.21;39.65;100975.91;4975644;28;20031;-71
2022/09/02 18:11:15;;;;;;;19.02;3.53;;;;;;;22.14;40.01;100969.97;4973889;28;20035;-71
2022/09/02 18:14:05;;;;;;;11.90;3.10;;;;;;;22.04;40.12;100967.38;4975349;28;20039;-71
2022/09/02 18:16:33;;;;;;;9.27;3.35;;;;;;;21.92;40.24;100964.97;4973343;28;20065;-71
2022/09/02 18:19:36;;;;;;;14.73;4.32;;;;;;;21.81;40.38;100971.63;4975311;28;20105;-71
2022/09/02 18:25:36;;;;;;;5.20;2.70;;;;;;;21.60;40.98;100974.50;4974483;28;20046;-72
2022/09/02 18:31:40;;;;;;;5.32;3.30;;;;;;;21.45;41.53;100961.03;4975139;28;20085;-72
2022/09/02 18:34:28;;;;;;;7.63;3.08;;;;;;;21.36;41.83;100970.06;4973510;28;20129;-72
2022/09/02 18:37:08;;;;;;;4.22;3.00;;;;;;;21.27;41.80;100967.13;4974835;28;20035;-72
2022/09/02 18:39:40;;;;;;;9.15;2.75;;;;;;;21.18;41.92;100966.91;4970568;28;20066;-72
2022/09/02 18:42:05;;;;;;;11.52;3.25;;;;;;;21.12;42.16;100973.47;4973661;28;20118;-74
2022/09/02 18:44:40;;;;;;;15.33;4.10;;;;;;;21.02;42.08;100973.50;4977663;28;20446;-73
2022/09/02 18:47:11;;;;;;;13.38;3.50;;;;;;;20.93;42.46;100970.56;4974801;28;20282;-72
2022/09/02 18:49:38;;;;;;;16.20;3.95;;;;;;;20.89;42.57;100983.09;4977659;28;20051;-73
2022/09/02 18:52:08;;;;;;;14.15;3.80;;;;;;;20.77;42.57;100976.34;4974652;28;20078;-73
2022/09/02 18:54:46;;;;;;;10.00;3.22;;;;;;;20.78;42.46;100986.13;4976206;28;20089;-72
2022/09/02 18:57:13;;;;;;;7.57;3.42;;;;;;;20.70;43.34;100990.25;4973158;28;20035;-71
2022/09/02 18:59:50;;;;;;;7.43;2.95;;;;;;;20.59;43.24;100977.78;4974560;28;20034;-72
2022/09/02 19:02:25;;;;;;;21.70;4.93;;;;;;;20.54;43.85;100980.53;4977509;28;20043;-72
2022/09/02 19:04:50;;;;;;;14.52;4.20;;;;;;;20.46;43.83;100989.22;4974488;28;20403;-72
2022/09/02 19:10:05;;;;;;;7.18;3.47;;;;;;;20.34;44.27;100995.75;4974643;28;20650;-73
2022/09/02 19:12:32;;;;;;;8.90;3.40;;;;;;;20.27;44.58;100999.84;4974525;28;20494;-74
2022/09/02 19:18:20;;;;;;;9.20;3.38;;;;;;;20.13;44.92;100996.88;4974576;28;20069;-74
2022/09/02 19:24:11;;;;;;;6.25;3.38;;;;;;;20.02;45.52;101000.72;4977553;28;20042;-75
2022/09/02 19:26:39;;;;;;;10.10;3.50;;;;;;;19.99;45.53;100998.53;4973054;28;20582;-74
2022/09/02 19:29:08;;;;;;;7.05;3.08;;;;;;;19.92;46.07;100995.25;4974161;28;20495;-74
2022/09/02 19:34:56;;;;;;;7.45;3.20;;;;;;;19.83;46.51;100986.88;4974251;28;20041;-74
2022/09/02 19:37:22;;;;;;;7.55;3.25;;;;;;;19.77;46.32;100993.38;4971057;28;20126;-74
2022/09/02 19:39:49;;;;;;;8.63;3.80;;;;;;;19.72;46.30;100988.78;4972734;28;20129;-74
2022/09/02 19:45:37;;;;;;;6.30;3.55;;;;;;;19.59;46.63;100988.47;4974192;28;20252;-74
2022/09/02 19:51:25;;;;;;;5.38;3.25;;;;;;;19.43;47.71;100993.88;4973972;28;20069;-74
2022/09/02 19:53:51;;;;;;;9.50;3.65;;;;;;;19.40;48.09;100993.59;4976624;28;20562;-74
2022/09/02 19:59:38;;;;;;;5.43;2.83;;;;;;;19.26;47.51;100990.56;4973771;28;20061;-75
2022/09/02 20:05:25;;;;;;;6.53;3.22;;;;;;;19.18;48.91;100993.81;4973810;28;20050;-73
2022/09/02 20:11:12;;;;;;;5.40;2.90;;;;;;;19.04;48.66;100998.91;4973561;28;20069;-73
2022/09/02 20:17:04;;;;;;;7.47;3.30;;;;;;;18.98;49.16;101002.69;4973465;28;20050;-74
2022/09/02 20:22:56;;;;;;;5.78;2.95;;;;;;;18.80;49.31;100990.47;4974015;28;20061;-73
2022/09/02 20:25:32;;;;;;;11.70;3.97;;;;;;;18.81;49.58;100996.69;4976538;28;20487;-75
2022/09/02 20:28:19;;;;;;;6.13;3.13;;;;;;;18.76;50.09;101000.16;4973473;28;20042;-75
2022/09/02 20:30:48;;;;;;;6.97;3.40;;;;;;;18.65;49.82;100986.84;4976323;28;20058;-75
2022/09/02 20:33:20;;;;;;;7.25;3.40;;;;;;;18.60;50.52;101003.88;4972071;28;20423;-75
2022/09/02 20:39:25;;;;;;;8.68;3.78;;;;;;;18.50;50.00;100996.50;4973567;28;20057;-74
2022/09/02 20:45:27;;;;;;;8.05;3.60;;;;;;;18.37;50.81;100994.25;4973471;28;20042;-73
2022/09/02 20:51:21;;;;;;;9.57;3.63;;;;;;;18.34;51.34;100986.66;4973282;28;20045;-74
2022/09/02 20:57:24;;;;;;;9.45;3.65;;;;;;;18.26;51.34;100982.56;4973138;28;20105;-74
2022/09/02 21:03:15;;;;;;;9.63;3.67;;;;;;;18.13;51.70;100993.00;4972994;28;20050;-75
2022/09/02 21:09:18;;;;;;;7.50;3.90;;;;;;;18.18;52.06;100976.81;4973096;28;20454;-74
2022/09/02 21:15:11;;;;;;;7.63;3.55;;;;;;;18.11;52.10;100979.75;4973687;28;20130;-74
2022/09/02 21:21:02;;;;;;;5.00;3.58;;;;;;;18.08;52.34;100988.38;4973893;28;20093;-74
2022/09/02 21:27:02;;;;;;;5.45;3.55;;;;;;;17.98;52.28;100984.81;4972996;28;20074;-75
2022/09/02 21:29:56;;;;;;;12.77;3.70;;;;;;;17.91;52.25;100982.28;4972464;28;20472;-75
2022/09/02 21:32:33;;;;;;;9.95;3.67;;;;;;;17.85;53.15;100976.03;4966942;28;20065;-73
2022/09/02 21:35:11;;;;;;;6.70;3.90;;;;;;;17.85;52.77;100981.44;4971237;28;20538;-75
2022/09/02 21:37:39;;;;;;;7.20;3.80;;;;;;;17.82;52.69;100979.25;4971595;28;20424;-74
2022/09/02 21:43:49;;;;;;;9.30;4.10;;;;;;;17.74;52.69;100981.63;4972575;28;20045;-75
2022/09/02 21:50:01;;;;;;;9.05;3.75;;;;;;;17.61;53.34;100983.66;4972644;28;20053;-74
2022/09/02 21:52:46;;;;;;;7.80;3.65;;;;;;;17.56;53.29;100983.59;4971162;28;20388;-74
2022/09/02 21:58:47;;;;;;;8.50;3.47;;;;;;;17.44;53.77;100987.56;4972269;28;20058;-74
2022/09/02 22:01:36;;;;;;;4.72;3.65;;;;;;;17.34;54.59;100982.84;4969953;28;20080;-75
2022/09/02 22:04:11;;;;;;;5.53;3.80;;;;;;;17.29;55.00;100980.91;4974124;28;20546;-74
2022/09/02 22:10:32;;;;;;;7.68;3.70;;;;;;;17.14;55.27;100977.25;4975613;28;20045;-74
2022/09/02 22:13:00;;;;;;;5.07;4.07;;;;;;;17.08;55.87;100975.56;4974457;28;20051;-73
2022/09/02 22:18:54;;;;;;;6.10;3.78;;;;;;;16.96;56.04;100971.09;4975441;28;20093;-75
2022/09/02 22:21:45;;;;;;;6.03;4.20;;;;;;;16.99;55.70;100986.00;4975348;28;20027;-74
2022/09/02 22:24:11;;;;;;;4.25;3.85;;;;;;;16.96;56.65;100971.09;4974383;28;20046;-74
2022/09/02 22:30:13;;;;;;;8.07;4.70;;;;;;;16.88;56.52;100976.16;4975628;28;20098;-73
2022/09/02 22:32:42;;;;;;;6.70;4.22;;;;;;;16.82;56.96;100983.38;4974997;28;20517;-74
2022/09/02 22:38:45;;;;;;;6.60;4.60;;;;;;;16.72;56.85;100972.44;4975415;28;20513;-74
2022/09/02 22:41:31;;;;;;;8.00;4.07;;;;;;;16.70;56.88;100988.06;4973500;28;20027;-73
2022/09/02 22:44:26;;;;;;;5.35;4.05;;;;;;;16.71;56.60;100978.91;4974137;28;20403;-73
2022/09/02 22:56:07;;;;;;;7.35;4.72;;;;;;;16.42;58.11;100962.03;4975109;28;20070;-73
2022/09/02 23:08:41;;;;;;;7.65;4.57;;;;;;;16.21;59.83;100962.84;4975477;28;20100;-73
2022/09/02 23:11:12;;;;;;;7.07;4.63;;;;;;;16.20;59.73;100967.41;4974493;28;20046;-74
2022/09/02 23:13:58;;;;;;;7.63;5.25;;;;;;;16.14;59.85;100956.78;4973929;28;20126;-74
2022/09/02 23:16:34;;;;;;;10.55;5.43;;;;;;;16.15;60.41;100964.63;4973345;28;20478;-73
2022/09/02 23:19:10;;;;;;;12.32;4.97;;;;;;;16.13;60.51;100958.66;4968892;28;20060;-74
2022/09/02 23:22:00;;;;;;;9.57;5.78;;;;;;;16.08;59.80;100955.91;4974576;28;20039;-73
2022/09/02 23:24:54;;;;;;;7.72;5.40;;;;;;;16.05;59.67;100954.50;4973535;28;20125;-73
2022/09/02 23:30:59;;;;;;;6.80;5.00;;;;;;;15.93;60.84;100951.09;4974309;28;20566;-74
2022/09/02 23:37:08;;;;;;;10.05;5.07;;;;;;;15.93;60.76;100952.97;4974553;28;20045;-73
2022/09/02 23:40:19;;;;;;;7.75;5.38;;;;;;;15.90;60.31;100948.06;4972597;28;20038;-74
2022/09/02 23:42:46;;;;;;;8.18;5.10;;;;;;;15.82;62.19;100945.78;4960300;28;20102;-74
2022/09/02 23:45:26;;;;;;;8.63;5.30;;;;;;;15.77;61.54;100941.13;4973753;28;20034;-74
2022/09/02 23:48:10;;;;;;;8.75;5.35;;;;;;;15.75;61.18;100943.25;4973026;28;20047;-73
2022/09/02 23:50:47;;;;;;;9.48;5.18;;;;;;;15.66;61.83;100932.06;4973970;28;20026;-73
2022/09/02 23:53:28;;;;;;;6.65;5.10;;;;;;;15.66;61.75;100940.16;4973063;28;20053;-74
2022/09/02 23:56:17;;;;;;;6.78;5.32;;;;;;;15.60;61.81;100927.63;4973863;28;20039;-73
